createdAt,value
2022-11-29T00:01:24.068Z,57.43
2022-11-29T00:03:51.434Z,63.77
2022-11-29T00:06:20.102Z,65.83
2022-11-29T00:08:47.564Z,58.63
2022-11-29T00:11:38.771Z,61.27
2022-11-29T00:14:09.884Z,56.97
2022-11-29T00:16:36.963Z,63.03
2022-11-29T00:19:03.867Z,64.87
2022-11-29T00:21:30.688Z,58.17
2022-11-29T00:23:57.685Z,64.77
2022-11-29T00:26:24.603Z,66.93
2022-11-29T00:28:51.497Z,67.83
2022-11-29T00:31:18.412Z,64.07
2022-11-29T00:33:45.380Z,62.73
2022-11-29T00:36:12.691Z,67.23
2022-11-29T00:38:39.565Z,56.60
2022-11-29T00:41:06.778Z,63.50
2022-11-29T00:43:33.664Z,64.33
2022-11-29T00:46:00.671Z,65.90
2022-11-29T00:48:27.832Z,65.77
2022-11-29T00:50:54.621Z,64.40
2022-11-29T00:53:21.485Z,67.73
2022-11-29T00:55:48.896Z,63.17
2022-11-29T00:58:15.856Z,58.80
2022-11-29T01:00:42.761Z,59.83
2022-11-29T01:03:10.054Z,61.47
2022-11-29T01:05:36.831Z,59.90
2022-11-29T01:08:04.180Z,61.43
2022-11-29T01:10:31.048Z,62.53
2022-11-29T01:12:57.952Z,64.90
2022-11-29T01:15:24.811Z,59.93
2022-11-29T01:17:51.690Z,58.50
2022-11-29T01:20:18.533Z,59.80
2022-11-29T01:22:45.610Z,52.13
2022-11-29T01:25:12.916Z,58.50
2022-11-29T01:27:40.070Z,61.47
2022-11-29T01:30:07.661Z,60.53
2022-11-29T01:32:34.954Z,59.33
2022-11-29T01:35:02.014Z,65.30
2022-11-29T01:37:29.422Z,62.77
2022-11-29T01:39:56.523Z,64.97
2022-11-29T01:42:23.309Z,62.60
2022-11-29T01:44:50.168Z,64.30
2022-11-29T01:47:18.056Z,62.37
2022-11-29T01:49:47.029Z,63.20
2022-11-29T01:52:22.363Z,61.17
2022-11-29T01:54:50.570Z,59.03
2022-11-29T01:57:18.615Z,66.50
2022-11-29T01:59:49.874Z,58.20
2022-11-29T02:02:20.836Z,70.60
2022-11-29T02:04:48.593Z,71.70
2022-11-29T02:07:15.753Z,63.50
2022-11-29T02:09:42.887Z,63.97
2022-11-29T02:12:09.819Z,56.80
2022-11-29T02:14:36.689Z,60.97
2022-11-29T02:17:09.906Z,62.83
2022-11-29T02:19:55.456Z,68.73
2022-11-29T02:22:31.858Z,63.77
2022-11-29T02:25:17.366Z,62.90
2022-11-29T02:27:59.384Z,62.20
2022-11-29T02:30:35.254Z,63.40
2022-11-29T02:33:27.524Z,68.90
2022-11-29T02:36:00.289Z,57.20
2022-11-29T02:38:44.153Z,63.90
2022-11-29T02:41:30.087Z,67.47
2022-11-29T02:43:58.119Z,70.00
2022-11-29T02:46:27.948Z,64.53
2022-11-29T02:49:11.049Z,89.33
2022-11-29T02:51:49.869Z,69.30
2022-11-29T02:54:24.593Z,64.50
2022-11-29T02:57:00.203Z,66.80
2022-11-29T02:59:38.972Z,64.63
2022-11-29T03:02:05.871Z,70.07
2022-11-29T03:04:35.409Z,65.93
2022-11-29T03:07:15.729Z,65.00
2022-11-29T03:09:45.491Z,55.47
2022-11-29T03:12:12.379Z,52.03
2022-11-29T03:14:47.255Z,54.60
2022-11-29T03:17:20.747Z,56.23
2022-11-29T03:19:54.008Z,55.53
2022-11-29T03:22:23.640Z,55.77
2022-11-29T03:25:16.946Z,60.13
2022-11-29T03:27:51.480Z,59.87
2022-11-29T03:30:19.297Z,57.47
2022-11-29T03:33:02.718Z,58.47
2022-11-29T03:35:29.541Z,54.60
2022-11-29T03:38:05.588Z,53.77
2022-11-29T03:40:32.456Z,52.30
2022-11-29T03:43:03.197Z,55.53
2022-11-29T03:45:36.596Z,63.60
2022-11-29T03:48:03.645Z,54.33
2022-11-29T03:50:42.477Z,54.23
2022-11-29T03:53:18.543Z,53.67
2022-11-29T03:55:54.329Z,56.17
2022-11-29T03:58:32.442Z,61.43
2022-11-29T04:00:59.349Z,58.70
2022-11-29T04:03:46.349Z,52.57
2022-11-29T04:06:31.872Z,57.60
2022-11-29T04:09:17.149Z,54.37
2022-11-29T04:11:56.237Z,65.27
2022-11-29T04:14:42.084Z,52.63
2022-11-29T04:17:18.074Z,59.67
2022-11-29T04:19:54.237Z,61.73
2022-11-29T04:22:23.985Z,59.23
2022-11-29T04:25:15.353Z,60.43
2022-11-29T04:28:02.530Z,58.57
2022-11-29T04:30:30.824Z,58.37
2022-11-29T04:33:16.604Z,51.37
2022-11-29T04:35:52.558Z,57.50
2022-11-29T04:38:25.194Z,57.07
2022-11-29T04:41:02.632Z,47.97
2022-11-29T04:43:48.244Z,55.03
2022-11-29T04:46:35.976Z,56.33
2022-11-29T04:49:05.613Z,57.93
2022-11-29T04:51:35.195Z,66.43
2022-11-29T04:54:05.172Z,57.43
2022-11-29T04:56:51.861Z,61.17
2022-11-29T04:59:31.020Z,54.13
2022-11-29T05:02:16.370Z,58.87
2022-11-29T05:04:51.039Z,63.10
2022-11-29T05:07:26.794Z,56.37
2022-11-29T05:09:59.842Z,66.27
2022-11-29T05:12:45.334Z,93.37
2022-11-29T05:15:15.095Z,89.00
2022-11-29T05:17:42.559Z,91.90
2022-11-29T05:20:19.063Z,69.40
2022-11-29T05:23:04.694Z,67.00
2022-11-29T05:25:34.587Z,54.13
2022-11-29T05:28:09.862Z,62.40
2022-11-29T05:30:56.104Z,64.60
2022-11-29T05:33:32.616Z,61.43
2022-11-29T05:36:05.573Z,62.60
2022-11-29T05:38:49.357Z,61.53
2022-11-29T05:41:19.007Z,59.73
2022-11-29T05:43:46.208Z,68.97
2022-11-29T05:46:26.955Z,60.23
2022-11-29T05:49:08.780Z,65.20
2022-11-29T05:51:42.096Z,62.40
2022-11-29T05:54:20.128Z,80.63
2022-11-29T05:56:59.594Z,79.67
2022-11-29T05:59:30.432Z,63.77
2022-11-29T06:02:12.368Z,60.83
2022-11-29T06:04:58.076Z,61.63
2022-11-29T06:07:31.163Z,59.33
2022-11-29T06:10:02.109Z,54.90
2022-11-29T06:12:31.507Z,54.40
2022-11-29T06:15:14.130Z,56.80
2022-11-29T06:17:41.100Z,58.93
2022-11-29T06:20:26.740Z,59.57
2022-11-29T06:23:05.933Z,59.90
2022-11-29T06:25:47.333Z,58.87
2022-11-29T06:28:14.349Z,56.90
2022-11-29T06:31:02.268Z,56.57
2022-11-29T06:33:36.630Z,55.40
2022-11-29T06:36:13.125Z,52.20
2022-11-29T06:38:40.140Z,58.07
2022-11-29T06:41:07.125Z,50.90
2022-11-29T06:43:34.268Z,49.53
2022-11-29T06:46:04.777Z,47.87
2022-11-29T06:48:36.548Z,53.33
2022-11-29T06:51:15.372Z,59.57
2022-11-29T06:53:45.431Z,92.53
2022-11-29T06:56:15.097Z,86.87
2022-11-29T06:58:57.675Z,93.70
2022-11-29T07:01:40.827Z,71.90
2022-11-29T07:04:07.900Z,71.97
2022-11-29T07:06:35.476Z,72.53
2022-11-29T07:09:08.849Z,53.03
2022-11-29T07:11:35.979Z,62.37
2022-11-29T07:14:03.028Z,60.80
2022-11-29T07:16:36.041Z,68.90
2022-11-29T07:19:21.341Z,63.17
2022-11-29T07:22:09.204Z,65.83
2022-11-29T07:24:36.030Z,95.13
2022-11-29T07:27:08.548Z,77.50
2022-11-29T07:29:46.343Z,67.63
2022-11-29T07:32:19.431Z,83.50
2022-11-29T07:35:04.740Z,79.03
2022-11-29T07:37:53.001Z,82.47
2022-11-29T07:40:24.108Z,75.27
2022-11-29T07:42:51.057Z,68.33
2022-11-29T07:45:24.294Z,70.40
2022-11-29T07:47:51.812Z,70.10
2022-11-29T07:50:18.756Z,79.87
2022-11-29T07:52:45.764Z,71.00
2022-11-29T07:55:18.508Z,66.97
2022-11-29T07:57:45.902Z,68.27
2022-11-29T08:00:13.007Z,130.13
2022-11-29T08:02:39.924Z,68.13
2022-11-29T08:05:07.096Z,61.77
2022-11-29T08:07:35.336Z,56.40
2022-11-29T08:10:02.654Z,59.70
2022-11-29T08:12:29.563Z,66.93
2022-11-29T08:14:56.409Z,60.73
2022-11-29T08:17:23.429Z,60.70
2022-11-29T08:19:50.509Z,62.63
2022-11-29T08:22:17.439Z,60.87
2022-11-29T08:24:44.415Z,56.07
2022-11-29T08:27:11.504Z,60.50
2022-11-29T08:29:38.445Z,54.63
2022-11-29T08:32:06.104Z,57.33
2022-11-29T08:34:32.942Z,60.97
2022-11-29T08:36:59.767Z,59.50
2022-11-29T08:39:26.594Z,56.47
2022-11-29T08:41:53.528Z,58.53
2022-11-29T08:44:20.390Z,55.10
2022-11-29T08:47:25.924Z,58.17
2022-11-29T08:50:01.786Z,55.40
2022-11-29T08:52:48.375Z,59.07
2022-11-29T08:55:15.533Z,55.23
2022-11-29T08:57:42.334Z,57.27
2022-11-29T09:00:09.749Z,60.63
2022-11-29T09:02:37.417Z,56.33
2022-11-29T09:05:05.132Z,61.43
2022-11-29T09:07:32.053Z,59.03
2022-11-29T09:09:59.049Z,58.37
2022-11-29T09:12:26.027Z,57.63
2022-11-29T09:14:52.856Z,66.10
2022-11-29T09:17:19.822Z,48.70
2022-11-29T09:19:46.819Z,55.07
2022-11-29T09:22:13.604Z,58.20
2022-11-29T09:24:40.592Z,57.93
2022-11-29T09:27:07.594Z,53.53
2022-11-29T09:29:34.529Z,56.67
2022-11-29T09:32:01.355Z,56.07
2022-11-29T09:34:28.300Z,59.93
2022-11-29T09:36:55.191Z,60.10
2022-11-29T09:39:22.023Z,56.20
2022-11-29T09:41:49.058Z,56.40
2022-11-29T09:44:15.953Z,51.80
2022-11-29T09:46:45.860Z,48.33
2022-11-29T09:49:32.108Z,52.93
2022-11-29T09:51:58.939Z,52.60
2022-11-29T09:54:44.597Z,52.33
2022-11-29T09:57:12.800Z,49.13
2022-11-29T09:59:45.146Z,45.03
2022-11-29T10:02:21.331Z,51.10
2022-11-29T10:05:01.000Z,50.60
2022-11-29T10:07:37.944Z,55.83
2022-11-29T10:10:16.371Z,47.83
2022-11-29T10:12:48.609Z,51.47
2022-11-29T10:15:17.189Z,47.17
2022-11-29T10:17:50.451Z,42.63
2022-11-29T10:20:19.577Z,45.67
2022-11-29T10:22:53.671Z,44.63
2022-11-29T10:25:24.278Z,40.10
2022-11-29T10:27:51.533Z,41.57
2022-11-29T10:30:18.648Z,41.47
2022-11-29T10:32:46.824Z,42.47
2022-11-29T10:35:15.011Z,43.03
2022-11-29T10:37:42.680Z,49.67
2022-11-29T10:40:21.009Z,42.73
2022-11-29T10:42:53.320Z,43.10
2022-11-29T10:45:31.146Z,43.47
2022-11-29T10:48:06.430Z,47.00
2022-11-29T10:50:35.024Z,43.53
2022-11-29T10:53:06.226Z,44.43
2022-11-29T10:55:56.225Z,38.60
2022-11-29T10:58:28.706Z,48.27
2022-11-29T11:01:00.036Z,42.73
2022-11-29T11:03:29.686Z,44.90
2022-11-29T11:06:09.977Z,43.77
2022-11-29T11:08:38.258Z,50.73
2022-11-29T11:11:06.261Z,42.10
2022-11-29T11:13:35.935Z,47.20
2022-11-29T11:16:09.859Z,48.33
2022-11-29T11:18:37.486Z,50.40
2022-11-29T11:21:04.874Z,48.40
2022-11-29T11:23:42.349Z,47.07
2022-11-29T11:26:12.078Z,48.17
2022-11-29T11:28:42.392Z,49.00
2022-11-29T11:31:10.937Z,42.30
2022-11-29T11:33:38.944Z,46.97
2022-11-29T11:36:06.172Z,48.00
2022-11-29T11:38:36.744Z,53.70
2022-11-29T11:41:05.328Z,44.77
2022-11-29T11:43:32.859Z,49.13
2022-11-29T11:46:00.090Z,41.03
2022-11-29T11:48:27.078Z,51.23
2022-11-29T11:50:55.108Z,56.77
2022-11-29T11:53:22.071Z,47.27
2022-11-29T11:56:12.233Z,46.63
2022-11-29T11:58:45.465Z,47.83
2022-11-29T12:01:12.426Z,49.20
2022-11-29T12:03:39.304Z,52.00
2022-11-29T12:06:06.234Z,48.27
2022-11-29T12:08:34.306Z,52.73
2022-11-29T12:11:07.446Z,52.13
2022-11-29T12:13:36.243Z,50.87
2022-11-29T12:16:10.009Z,61.03
2022-11-29T12:18:38.237Z,49.70
2022-11-29T12:21:16.681Z,42.47
2022-11-29T12:23:46.812Z,51.87
2022-11-29T12:26:55.967Z,57.07
2022-11-29T12:29:17.759Z,56.43
2022-11-29T12:32:13.688Z,45.13
2022-11-29T12:34:43.233Z,49.60
2022-11-29T12:37:29.311Z,52.80
2022-11-29T12:39:59.600Z,50.87
2022-11-29T12:42:45.155Z,48.07
2022-11-29T12:45:21.549Z,52.27
2022-11-29T12:47:57.743Z,53.07
2022-11-29T12:50:24.693Z,52.90
2022-11-29T12:52:51.453Z,51.33
2022-11-29T12:55:23.529Z,57.20
2022-11-29T12:58:14.282Z,56.43
2022-11-29T13:00:52.599Z,53.17
2022-11-29T13:03:42.430Z,67.60
2022-11-29T13:06:12.618Z,78.87
2022-11-29T13:08:39.555Z,85.50
2022-11-29T13:11:09.367Z,96.10
2022-11-29T13:13:41.254Z,86.13
2022-11-29T13:19:03.718Z,90.00
2022-11-29T13:21:33.572Z,90.20
2022-11-29T13:24:09.971Z,91.47
2022-11-29T13:26:38.649Z,84.47
2022-11-29T13:29:06.488Z,85.30
2022-11-29T13:31:33.946Z,89.37
2022-11-29T13:34:15.563Z,95.00
2022-11-29T13:36:42.426Z,92.63
2022-11-29T13:39:23.773Z,107.93
2022-11-29T13:41:50.663Z,110.23
2022-11-29T13:44:23.891Z,103.43
2022-11-29T13:46:56.883Z,101.07
2022-11-29T13:49:43.897Z,96.83
2022-11-29T13:52:24.013Z,82.17
2022-11-29T13:55:03.871Z,83.63
2022-11-29T13:58:14.481Z,126.30
2022-11-29T14:00:35.302Z,84.43
2022-11-29T14:03:31.734Z,84.67
2022-11-29T14:06:01.831Z,79.37
2022-11-29T14:08:37.856Z,80.17
2022-11-29T14:11:15.172Z,87.23
2022-11-29T14:13:41.928Z,93.20
2022-11-29T14:16:17.322Z,99.10
2022-11-29T14:19:04.002Z,101.27
2022-11-29T14:21:49.600Z,102.40
2022-11-29T14:24:42.659Z,90.83
2022-11-29T14:27:10.261Z,81.70
2022-11-29T14:29:55.384Z,92.40
2022-11-29T14:32:41.485Z,87.20
2022-11-29T14:35:11.500Z,89.00
2022-11-29T14:37:53.692Z,83.70
2022-11-29T14:40:20.588Z,89.07
2022-11-29T14:42:51.154Z,109.30
2022-11-29T14:45:22.640Z,97.60
2022-11-29T14:47:49.875Z,97.13
2022-11-29T14:50:28.845Z,90.77
2022-11-29T14:52:55.718Z,81.90
2022-11-29T14:55:25.650Z,81.00
2022-11-29T14:57:53.723Z,98.03
2022-11-29T15:00:21.373Z,119.17
2022-11-29T15:02:48.180Z,130.40
2022-11-29T15:05:19.697Z,101.03
2022-11-29T15:08:05.116Z,86.07
2022-11-29T15:10:34.874Z,80.13
2022-11-29T15:13:03.033Z,88.40
2022-11-29T15:15:33.092Z,74.33
2022-11-29T15:18:22.098Z,77.70
2022-11-29T15:21:01.318Z,72.13
2022-11-29T15:23:28.216Z,83.27
2022-11-29T15:26:00.043Z,79.90
2022-11-29T15:28:28.466Z,77.80
2022-11-29T15:31:09.347Z,89.87
2022-11-29T15:33:37.322Z,117.90
2022-11-29T15:36:05.477Z,85.60
2022-11-29T15:38:41.065Z,84.73
2022-11-29T15:41:17.882Z,105.10
2022-11-29T15:43:47.414Z,85.03
2022-11-29T15:46:21.660Z,143.43
2022-11-29T15:48:48.688Z,153.80
2022-11-29T15:51:22.146Z,201.57
2022-11-29T15:54:11.782Z,134.33
2022-11-29T15:56:39.503Z,79.73
2022-11-29T15:59:14.283Z,70.97
2022-11-29T16:01:43.287Z,64.83
2022-11-29T16:04:15.271Z,65.33
2022-11-29T16:06:42.815Z,64.63
2022-11-29T16:09:12.802Z,70.63
2022-11-29T16:11:39.843Z,68.97
2022-11-29T16:14:17.025Z,62.53
2022-11-29T16:16:48.212Z,67.10
2022-11-29T16:19:23.122Z,62.10
2022-11-29T16:22:07.725Z,68.53
2022-11-29T16:24:35.209Z,63.10
2022-11-29T16:27:02.246Z,73.20
2022-11-29T16:29:30.804Z,69.93
2022-11-29T16:31:58.182Z,66.00
2022-11-29T16:34:27.648Z,66.80
2022-11-29T16:37:06.571Z,77.57
2022-11-29T16:39:35.423Z,63.47
2022-11-29T16:42:05.858Z,68.87
2022-11-29T16:44:38.890Z,70.67
2022-11-29T16:47:31.936Z,74.87
2022-11-29T16:50:01.753Z,73.57
2022-11-29T16:52:32.574Z,66.00
2022-11-29T16:54:59.455Z,64.00
2022-11-29T16:57:27.468Z,66.23
2022-11-29T16:59:54.487Z,66.93
2022-11-29T17:02:21.584Z,64.67
2022-11-29T17:04:48.648Z,63.63
2022-11-29T17:07:22.261Z,64.30
2022-11-29T17:09:49.285Z,70.47
2022-11-29T17:12:16.159Z,67.77
2022-11-29T17:14:43.151Z,68.77
2022-11-29T17:17:13.894Z,62.63
2022-11-29T17:19:40.709Z,58.93
2022-11-29T17:22:07.574Z,57.30
2022-11-29T17:24:34.580Z,55.27
2022-11-29T17:27:01.377Z,63.40
2022-11-29T17:29:28.291Z,60.90
2022-11-29T17:31:55.219Z,60.90
2022-11-29T17:34:22.236Z,59.80
2022-11-29T17:36:49.300Z,65.00
2022-11-29T17:39:20.201Z,64.33
2022-11-29T17:41:47.352Z,119.17
2022-11-29T17:44:14.149Z,99.00
2022-11-29T17:46:40.989Z,124.23
2022-11-29T17:49:08.861Z,85.40
2022-11-29T17:51:54.440Z,173.63
2022-11-29T17:54:22.349Z,152.37
2022-11-29T17:56:49.772Z,263.23
2022-11-29T17:59:16.815Z,338.07
2022-11-29T18:01:43.720Z,167.10
2022-11-29T18:04:10.746Z,102.40
2022-11-29T18:06:38.775Z,190.87
2022-11-29T18:09:06.848Z,241.93
2022-11-29T18:11:44.964Z,166.47
2022-11-29T18:14:15.798Z,67.60
2022-11-29T18:16:42.658Z,71.93
2022-11-29T18:19:11.821Z,95.43
2022-11-29T18:21:38.735Z,94.33
2022-11-29T18:24:06.438Z,73.07
2022-11-29T18:26:34.269Z,77.27
2022-11-29T18:29:01.558Z,83.00
2022-11-29T18:31:31.881Z,80.67
2022-11-29T18:33:59.904Z,76.27
2022-11-29T18:36:30.547Z,75.93
2022-11-29T18:39:02.111Z,105.90
2022-11-29T18:41:30.093Z,78.07
2022-11-29T18:44:01.178Z,81.80
2022-11-29T18:46:32.509Z,71.27
2022-11-29T18:49:00.946Z,97.53
2022-11-29T18:51:28.964Z,72.50
2022-11-29T18:53:56.695Z,69.43
2022-11-29T18:56:24.879Z,81.03
2022-11-29T18:58:58.427Z,77.10
2022-11-29T19:01:27.190Z,70.80
2022-11-29T19:03:55.301Z,79.23
2022-11-29T19:06:35.443Z,66.93
2022-11-29T19:09:06.581Z,70.57
2022-11-29T19:11:33.829Z,83.97
2022-11-29T19:14:03.456Z,79.80
2022-11-29T19:16:31.322Z,81.67
2022-11-29T19:18:59.493Z,90.50
2022-11-29T19:21:27.363Z,80.17
2022-11-29T19:23:55.602Z,76.83
2022-11-29T19:26:23.255Z,87.43
2022-11-29T19:28:50.288Z,75.27
2022-11-29T19:31:18.832Z,75.20
2022-11-29T19:33:46.341Z,67.23
2022-11-29T19:36:15.768Z,69.77
2022-11-29T19:38:43.421Z,72.23
2022-11-29T19:41:29.601Z,64.63
2022-11-29T19:43:57.532Z,66.97
2022-11-29T19:46:25.622Z,72.60
2022-11-29T19:48:53.286Z,73.03
2022-11-29T19:51:20.667Z,77.43
2022-11-29T19:53:48.225Z,66.27
2022-11-29T19:56:16.122Z,75.73
2022-11-29T19:58:43.454Z,82.53
2022-11-29T20:01:13.490Z,78.47
2022-11-29T20:03:40.819Z,88.47
2022-11-29T20:06:08.358Z,101.87
2022-11-29T20:08:35.276Z,79.17
2022-11-29T20:11:15.626Z,75.47
2022-11-29T20:13:43.488Z,75.70
2022-11-29T20:16:12.513Z,67.20
2022-11-29T20:18:42.619Z,68.83
2022-11-29T20:21:16.821Z,67.43
2022-11-29T20:23:43.913Z,83.57
2022-11-29T20:26:15.162Z,69.53
2022-11-29T20:28:42.678Z,79.40
2022-11-29T20:31:10.626Z,74.30
2022-11-29T20:33:38.476Z,72.90
2022-11-29T20:36:05.277Z,67.23
2022-11-29T20:38:39.159Z,63.73
2022-11-29T20:41:15.108Z,66.73
2022-11-29T20:43:41.986Z,63.07
2022-11-29T20:46:08.907Z,69.70
2022-11-29T20:48:35.923Z,68.67
2022-11-29T20:51:03.005Z,63.27
2022-11-29T20:53:29.899Z,67.37
2022-11-29T20:55:56.722Z,63.17
2022-11-29T20:58:23.908Z,61.13
2022-11-29T21:00:50.756Z,66.33
2022-11-29T21:03:18.798Z,65.40
2022-11-29T21:05:46.034Z,64.27
2022-11-29T21:08:13.703Z,63.70
2022-11-29T21:10:40.644Z,70.63
2022-11-29T21:13:07.736Z,61.33
2022-11-29T21:15:34.789Z,65.70
2022-11-29T21:18:02.024Z,64.37
2022-11-29T21:20:28.937Z,62.83
2022-11-29T21:23:09.001Z,60.17
2022-11-29T21:25:41.918Z,68.07
2022-11-29T21:28:11.761Z,62.87
2022-11-29T21:30:38.726Z,67.83
2022-11-29T21:33:06.000Z,63.40
2022-11-29T21:35:33.039Z,64.27
2022-11-29T21:38:01.025Z,67.67
2022-11-29T21:40:28.049Z,65.93
2022-11-29T21:42:54.817Z,63.60
2022-11-29T21:45:21.698Z,64.57
2022-11-29T21:47:48.772Z,62.20
2022-11-29T21:50:15.702Z,67.40
2022-11-29T21:52:44.434Z,59.47
2022-11-29T21:55:11.418Z,66.70
2022-11-29T21:57:39.362Z,66.80
2022-11-29T22:00:06.617Z,68.10
2022-11-29T22:02:33.607Z,63.43
2022-11-29T22:05:00.528Z,65.63
2022-11-29T22:07:27.504Z,58.03
2022-11-29T22:09:54.423Z,52.60
2022-11-29T22:12:34.282Z,61.83
2022-11-29T22:15:02.426Z,65.03
2022-11-29T22:17:29.209Z,65.93
2022-11-29T22:19:56.082Z,59.73
2022-11-29T22:22:26.003Z,60.87
2022-11-29T22:24:55.533Z,59.70
2022-11-29T22:27:22.580Z,64.57
2022-11-29T22:29:49.708Z,58.90
2022-11-29T22:32:16.843Z,62.33
2022-11-29T22:34:44.059Z,61.47
2022-11-29T22:37:12.596Z,65.50
2022-11-29T22:39:39.483Z,62.03
2022-11-29T22:42:07.384Z,58.30
2022-11-29T22:44:34.177Z,60.67
2022-11-29T22:47:01.107Z,63.77
2022-11-29T22:49:28.011Z,55.97
2022-11-29T22:51:55.227Z,66.57
2022-11-29T22:54:22.397Z,71.23
2022-11-29T22:56:49.284Z,68.33
2022-11-29T22:59:16.287Z,61.10
2022-11-29T23:01:43.345Z,69.57
2022-11-29T23:04:11.387Z,59.00
2022-11-29T23:06:39.317Z,58.67
2022-11-29T23:09:07.676Z,55.53
2022-11-29T23:11:34.580Z,63.20
2022-11-29T23:14:01.537Z,53.40
2022-11-29T23:16:30.009Z,61.97
2022-11-29T23:19:00.800Z,58.27
2022-11-29T23:21:31.675Z,60.63
2022-11-29T23:24:02.226Z,57.73
2022-11-29T23:26:30.842Z,61.87
2022-11-29T23:28:58.757Z,53.63
2022-11-29T23:31:25.777Z,63.80
2022-11-29T23:33:52.785Z,63.47
2022-11-29T23:36:19.693Z,58.60
2022-11-29T23:38:47.379Z,58.10
2022-11-29T23:41:14.355Z,59.33
2022-11-29T23:43:41.872Z,60.93
2022-11-29T23:46:21.924Z,59.70
2022-11-29T23:48:49.050Z,64.77
2022-11-29T23:51:16.354Z,65.53
2022-11-29T23:53:43.825Z,60.33
2022-11-29T23:56:14.959Z,63.47
2022-11-29T23:58:42.254Z,64.53
